Alessandro F — IBVQ — position and weather

sailwx.info

Track history (hours):
 
Tides and Currents Weather Stations Pressure Air Temp Water Temp Dewpoint Dewpoint Depression Visibility Wind Speed Wind Dir Waves Ship Positions

Alessandro F

Last reported at 2016-Aug-26 17:33 UTC. Time now 2016-Aug-27 16:52 UTC.
Position N 42°13' E 010°50'.

Length 100 m; draft 5 m.

Type: Ship. MMSI: 247046400.

Date/timePositionNaut miles runAvg speedWind from/ knotsBaromVisibWave heightAir tempDewpointWater temp
2016-Aug-26 17:33N 42°13' E 010°50'1313.2
2016-Aug-26 16:33N 42°24' E 010°41'1413.7
2016-Aug-26 15:33N 42°38' E 010°37'  
2016-Aug-23 16:33N 42°54' E 010°34'1111.0
2016-Aug-23 15:33N 42°44' E 010°32'1312.4
2016-Aug-23 14:30N 42°34' E 010°19'1213.1
2016-Aug-23 13:33N 42°29' E 010°04'23 1.2
2016-Aug-22 18:19N 42°33' E 009°34'0 0.0
2016-Aug-22 17:32N 42°33' E 009°34'0 0.0
2016-Aug-22 16:33N 42°33' E 009°34'1 1.2
2016-Aug-22 15:33N 42°33' E 009°33'0 0.0
2016-Aug-22 14:33N 42°33' E 009°33'125 4.8
2016-Aug-21 12:33N 40°39' E 010°42'19612.9
2016-Aug-20 21:24N 37°38' E 012°18'4213.4
2016-Aug-20 18:16N 37°15' E 013°01'913.0
2016-Aug-20 17:32N 37°10' E 013°12'1212.6
2016-Aug-20 16:33N 37°03' E 013°25'1212.4
2016-Aug-20 15:33N 36°57' E 013°38'1212.0
2016-Aug-20 14:33N 36°49' E 013°50'8 8.5
2016-Aug-20 13:33N 36°44' E 013°58'1 1.1
2016-Aug-20 12:33N 36°44' E 013°59'1312.7
2016-Aug-20 11:33N 36°36' E 014°12'1312.9
2016-Aug-20 10:33N 36°28' E 014°24'1313.2
2016-Aug-20 09:33N 36°17' E 014°33'1313.0
2016-Aug-20 08:33N 36°06' E 014°42'1312.7
2016-Aug-20 07:34N 35°53' E 014°43'9 8.9
2016-Aug-20 06:33N 35°49' E 014°33'1 0.1
2016-Aug-19 16:33N 35°50' E 014°33'0 0.0
2016-Aug-19 15:19N 35°50' E 014°33'0 0.0
2016-Aug-19 12:14N 35°50' E 014°33'0 0.0
2016-Aug-19 11:32N 35°50' E 014°33'3 0.6
2016-Aug-19 06:29N 35°48' E 014°36'3 3.0
2016-Aug-19 05:33N 35°47' E 014°39'5 4.7
2016-Aug-19 04:33N 35°46' E 014°45'1313.0
2016-Aug-19 03:31N 35°45' E 015°01'23 5.9
2016-Aug-18 23:33N 36°07' E 014°55'1010.0
2016-Aug-18 22:33N 36°09' E 014°43'1010.1
2016-Aug-18 21:33N 36°11' E 014°30'1010.4
2016-Aug-18 20:33N 36°14' E 014°18'1313.1
2016-Aug-18 19:34N 36°22' E 014°06'1413.9
2016-Aug-18 18:32N 36°31' E 013°52'1414.3
2016-Aug-18 17:33N 36°41' E 013°40'1414.1
2016-Aug-18 16:33N 36°50' E 013°26'1414.1
2016-Aug-18 15:34N 36°60' E 013°14'2014.1
2016-Aug-18 14:08N 37°13' E 012°55'165 9.7
2016-Aug-17 21:06N 39°55' E 013°30'1212.9
2016-Aug-17 20:11N 40°05' E 013°39'3212.0
2016-Aug-17 17:32N 40°31' E 014°02'1212.0
2016-Aug-17 16:33N 40°41' E 014°11'9 9.4
2016-Aug-17 15:33N 40°49' E 014°18'0 0.1
2016-Aug-17 14:31N 40°49' E 014°18'0 0.0
2016-Aug-17 13:10N 40°49' E 014°18'0 0.0
2016-Aug-17 11:28N 40°49' E 014°18'0 0.0
2016-Aug-17 10:28N 40°49' E 014°18'0 0.0
2016-Aug-17 09:16N 40°49' E 014°18'0 0.0
2016-Aug-17 08:28N 40°49' E 014°18'0 0.0
2016-Aug-17 07:22N 40°49' E 014°18'0 0.0
2016-Aug-17 04:28N 40°49' E 014°18'0 0.0
2016-Aug-17 03:22N 40°49' E 014°18'0 0.0
2016-Aug-17 02:28N 40°49' E 014°18'0 0.0
2016-Aug-17 01:28N 40°49' E 014°18'0 0.0
2016-Aug-17 00:10N 40°49' E 014°18'0 0.0
2016-Aug-16 23:28N 40°49' E 014°18'0 0.0
2016-Aug-16 22:28N 40°49' E 014°18'0 0.0
2016-Aug-16 21:28N 40°49' E 014°18'0 0.0
2016-Aug-16 20:28N 40°49' E 014°18'0 0.1
2016-Aug-16 19:28N 40°49' E 014°18'0 0.0
2016-Aug-16 18:28N 40°49' E 014°18'  
Track history (hours):
 
Tides and Currents Weather Stations Pressure Air Temp Water Temp Dewpoint Dewpoint Depression Visibility Wind Speed Wind Dir Waves Ship Positions

Alessandro F

Last reported at 2016-Aug-26 17:33 UTC. Time now 2016-Aug-27 16:52 UTC.
Position N 42°13' E 010°50'.

Length 100 m; draft 5 m.

Type: Ship. MMSI: 247046400.

Date/timePositionNaut miles runAvg speedWind from/ knotsBaromVisibWave heightAir tempDewpointWater temp
2016-Aug-26 17:33N 42°13' E 010°50'1313.2
2016-Aug-26 16:33N 42°24' E 010°41'1413.7
2016-Aug-26 15:33N 42°38' E 010°37'  
2016-Aug-23 16:33N 42°54' E 010°34'1111.0
2016-Aug-23 15:33N 42°44' E 010°32'1312.4
2016-Aug-23 14:30N 42°34' E 010°19'1213.1
2016-Aug-23 13:33N 42°29' E 010°04'23 1.2
2016-Aug-22 18:19N 42°33' E 009°34'0 0.0
2016-Aug-22 17:32N 42°33' E 009°34'0 0.0
2016-Aug-22 16:33N 42°33' E 009°34'1 1.2
2016-Aug-22 15:33N 42°33' E 009°33'0 0.0
2016-Aug-22 14:33N 42°33' E 009°33'125 4.8
2016-Aug-21 12:33N 40°39' E 010°42'19612.9
2016-Aug-20 21:24N 37°38' E 012°18'4213.4
2016-Aug-20 18:16N 37°15' E 013°01'913.0
2016-Aug-20 17:32N 37°10' E 013°12'1212.6
2016-Aug-20 16:33N 37°03' E 013°25'1212.4
2016-Aug-20 15:33N 36°57' E 013°38'1212.0
2016-Aug-20 14:33N 36°49' E 013°50'8 8.5
2016-Aug-20 13:33N 36°44' E 013°58'1 1.1
2016-Aug-20 12:33N 36°44' E 013°59'1312.7
2016-Aug-20 11:33N 36°36' E 014°12'1312.9
2016-Aug-20 10:33N 36°28' E 014°24'1313.2
2016-Aug-20 09:33N 36°17' E 014°33'1313.0
2016-Aug-20 08:33N 36°06' E 014°42'1312.7
2016-Aug-20 07:34N 35°53' E 014°43'9 8.9
2016-Aug-20 06:33N 35°49' E 014°33'1 0.1
2016-Aug-19 16:33N 35°50' E 014°33'0 0.0
2016-Aug-19 15:19N 35°50' E 014°33'0 0.0
2016-Aug-19 12:14N 35°50' E 014°33'0 0.0
2016-Aug-19 11:32N 35°50' E 014°33'3 0.6
2016-Aug-19 06:29N 35°48' E 014°36'3 3.0
2016-Aug-19 05:33N 35°47' E 014°39'5 4.7
2016-Aug-19 04:33N 35°46' E 014°45'1313.0
2016-Aug-19 03:31N 35°45' E 015°01'23 5.9
2016-Aug-18 23:33N 36°07' E 014°55'1010.0
2016-Aug-18 22:33N 36°09' E 014°43'1010.1
2016-Aug-18 21:33N 36°11' E 014°30'1010.4
2016-Aug-18 20:33N 36°14' E 014°18'1313.1
2016-Aug-18 19:34N 36°22' E 014°06'1413.9
2016-Aug-18 18:32N 36°31' E 013°52'1414.3
2016-Aug-18 17:33N 36°41' E 013°40'1414.1
2016-Aug-18 16:33N 36°50' E 013°26'1414.1
2016-Aug-18 15:34N 36°60' E 013°14'2014.1
2016-Aug-18 14:08N 37°13' E 012°55'165 9.7
2016-Aug-17 21:06N 39°55' E 013°30'1212.9
2016-Aug-17 20:11N 40°05' E 013°39'3212.0
2016-Aug-17 17:32N 40°31' E 014°02'1212.0
2016-Aug-17 16:33N 40°41' E 014°11'9 9.4
2016-Aug-17 15:33N 40°49' E 014°18'0 0.1
2016-Aug-17 14:31N 40°49' E 014°18'0 0.0
2016-Aug-17 13:10N 40°49' E 014°18'0 0.0
2016-Aug-17 11:28N 40°49' E 014°18'0 0.0
2016-Aug-17 10:28N 40°49' E 014°18'0 0.0
2016-Aug-17 09:16N 40°49' E 014°18'0 0.0
2016-Aug-17 08:28N 40°49' E 014°18'0 0.0
2016-Aug-17 07:22N 40°49' E 014°18'0 0.0
2016-Aug-17 04:28N 40°49' E 014°18'0 0.0
2016-Aug-17 03:22N 40°49' E 014°18'0 0.0
2016-Aug-17 02:28N 40°49' E 014°18'0 0.0
2016-Aug-17 01:28N 40°49' E 014°18'0 0.0
2016-Aug-17 00:10N 40°49' E 014°18'0 0.0
2016-Aug-16 23:28N 40°49' E 014°18'0 0.0
2016-Aug-16 22:28N 40°49' E 014°18'0 0.0
2016-Aug-16 21:28N 40°49' E 014°18'0 0.0
2016-Aug-16 20:28N 40°49' E 014°18'0 0.1
2016-Aug-16 19:28N 40°49' E 014°18'0 0.0
2016-Aug-16 18:28N 40°49' E 014°18'  

Dump ship's entire track history